Main page
METAR-TAF:

METAR-TAF

Airports :

RAF Marham

Marham, England

latitude: 52-39N, longitude: 000-34E, elevation: 23 m

Current weather observation

The report was made 1 hour and 14 minutes ago, at 07:50 UTC
Wind 9 kt from the East/Northeast
Temperature 6°C
Humidity 93%
Pressure 1030 hPa
Visibility: 9000 m
haze

METAR: EGYM 180750Z AUTO 07009KT 9000 HZ NCD 06/05 Q1030

Time: 09:04 (09:04 UTC)


TAF: missing

Weather observations and forecasts of more than 4000 airports (METAR and TAF reports).

The available stations are represented by yellow and red dots on the map.

Hover mouse over dot to see the name of the station.

Then click to see weather observations and forecasts.

To change the map : click on the green buttons with a black cross to zoom in, on the green button with a dash to zoom out, or on the green arrows for adjacent maps.


METAR-TAF: